Womack, Missouri
Current Conditions -  °F | °C
As of 1:15 PM on Friday 24 Oct 2014 (Local Time) from KFAM Reporting Station
Clear Clear  
Wind Chill: 70°   Ceiling: Unl
Heat Index: 70°   Visibility: 9mi
Dew Point: 50°   Wind: 6mph
Humidity: 49%   Direction: 190°S
Pressure: 30.11"   Gusts: NA
Location:  37.4979°N, 90.375°W
Report Text: KFAM 241815Z AUTO 19005KT 9SM CLR 21/10 A3011 RMK AO1
Loading
Personal Weather Stations






























Interactive Weather Map
Tropical Storm Tracking
New forecast layout! Learn more

10-Day Weather Forecast

Advertisements
Track Severe Weather on mobile